sensor_id;sensor_type;location;lat;lon;timestamp;P1;durP1;ratioP1;P2;durP2;ratioP2
5209;SDS011;2624;48.048;11.706;2024-02-16T00:00:41;2.13;;;1.93;;
5209;SDS011;2624;48.048;11.706;2024-02-16T00:05:44;4.33;;;3.10;;
5209;SDS011;2624;48.048;11.706;2024-02-16T00:10:47;2.50;;;2.27;;
5209;SDS011;2624;48.048;11.706;2024-02-16T00:15:50;3.30;;;2.70;;
5209;SDS011;2624;48.048;11.706;2024-02-16T00:20:52;2.10;;;2.00;;
5209;SDS011;2624;48.048;11.706;2024-02-16T00:25:53;2.30;;;2.10;;
5209;SDS011;2624;48.048;11.706;2024-02-16T00:30:57;2.37;;;2.10;;
5209;SDS011;2624;48.048;11.706;2024-02-16T00:35:58;3.97;;;2.70;;
5209;SDS011;2624;48.048;11.706;2024-02-16T00:41:00;6.90;;;1.83;;
5209;SDS011;2624;48.048;11.706;2024-02-16T00:46:03;2.30;;;2.10;;
5209;SDS011;2624;48.048;11.706;2024-02-16T00:51:05;1.80;;;1.67;;
5209;SDS011;2624;48.048;11.706;2024-02-16T00:56:07;2.10;;;1.90;;
5209;SDS011;2624;48.048;11.706;2024-02-16T01:01:10;3.20;;;2.07;;
5209;SDS011;2624;48.048;11.706;2024-02-16T01:06:12;1.80;;;1.70;;
5209;SDS011;2624;48.048;11.706;2024-02-16T01:11:14;2.07;;;1.97;;
5209;SDS011;2624;48.048;11.706;2024-02-16T01:16:17;3.37;;;2.20;;
5209;SDS011;2624;48.048;11.706;2024-02-16T01:21:19;1.67;;;1.40;;
5209;SDS011;2624;48.048;11.706;2024-02-16T01:26:20;2.77;;;1.30;;
5209;SDS011;2624;48.048;11.706;2024-02-16T01:31:23;1.93;;;1.57;;
5209;SDS011;2624;48.048;11.706;2024-02-16T01:36:26;2.80;;;1.57;;
5209;SDS011;2624;48.048;11.706;2024-02-16T01:41:27;1.60;;;1.60;;
5209;SDS011;2624;48.048;11.706;2024-02-16T01:46:31;2.20;;;1.77;;
5209;SDS011;2624;48.048;11.706;2024-02-16T01:51:33;5.23;;;2.20;;
5209;SDS011;2624;48.048;11.706;2024-02-16T01:56:37;1.70;;;1.63;;
5209;SDS011;2624;48.048;11.706;2024-02-16T02:01:40;3.80;;;2.10;;
5209;SDS011;2624;48.048;11.706;2024-02-16T02:06:41;2.63;;;1.43;;
5209;SDS011;2624;48.048;11.706;2024-02-16T02:11:43;1.90;;;1.63;;
5209;SDS011;2624;48.048;11.706;2024-02-16T02:16:47;2.93;;;1.93;;
5209;SDS011;2624;48.048;11.706;2024-02-16T02:21:48;1.83;;;1.40;;
5209;SDS011;2624;48.048;11.706;2024-02-16T02:26:52;1.63;;;1.17;;
5209;SDS011;2624;48.048;11.706;2024-02-16T02:31:55;1.70;;;1.57;;
5209;SDS011;2624;48.048;11.706;2024-02-16T02:36:56;1.80;;;1.57;;
5209;SDS011;2624;48.048;11.706;2024-02-16T02:42:00;1.33;;;1.33;;
5209;SDS011;2624;48.048;11.706;2024-02-16T02:47:02;3.03;;;2.43;;
5209;SDS011;2624;48.048;11.706;2024-02-16T02:52:03;6.43;;;2.03;;
5209;SDS011;2624;48.048;11.706;2024-02-16T02:57:08;1.63;;;1.53;;
5209;SDS011;2624;48.048;11.706;2024-02-16T03:02:09;2.30;;;2.03;;
5209;SDS011;2624;48.048;11.706;2024-02-16T03:07:11;1.80;;;1.70;;
5209;SDS011;2624;48.048;11.706;2024-02-16T03:12:15;1.67;;;1.57;;
5209;SDS011;2624;48.048;11.706;2024-02-16T03:17:17;1.40;;;1.30;;
5209;SDS011;2624;48.048;11.706;2024-02-16T03:22:20;1.70;;;1.60;;
5209;SDS011;2624;48.048;11.706;2024-02-16T03:27:23;3.53;;;1.00;;
5209;SDS011;2624;48.048;11.706;2024-02-16T03:32:25;1.13;;;1.03;;
5209;SDS011;2624;48.048;11.706;2024-02-16T03:37:26;1.30;;;1.20;;
5209;SDS011;2624;48.048;11.706;2024-02-16T03:42:30;0.90;;;0.90;;
5209;SDS011;2624;48.048;11.706;2024-02-16T03:47:31;2.93;;;1.57;;
5209;SDS011;2624;48.048;11.706;2024-02-16T03:52:33;1.13;;;1.07;;
5209;SDS011;2624;48.048;11.706;2024-02-16T03:57:36;1.63;;;1.00;;
5209;SDS011;2624;48.048;11.706;2024-02-16T04:02:38;3.90;;;1.30;;
5209;SDS011;2624;48.048;11.706;2024-02-16T04:07:40;1.30;;;1.20;;
5209;SDS011;2624;48.048;11.706;2024-02-16T04:12:43;1.10;;;1.10;;
5209;SDS011;2624;48.048;11.706;2024-02-16T04:17:46;3.40;;;1.33;;
5209;SDS011;2624;48.048;11.706;2024-02-16T04:22:47;0.80;;;0.80;;
5209;SDS011;2624;48.048;11.706;2024-02-16T04:27:51;1.70;;;1.60;;
5209;SDS011;2624;48.048;11.706;2024-02-16T04:32:52;1.00;;;1.00;;
5209;SDS011;2624;48.048;11.706;2024-02-16T04:37:54;1.80;;;1.27;;
5209;SDS011;2624;48.048;11.706;2024-02-16T04:42:57;1.17;;;1.07;;
5209;SDS011;2624;48.048;11.706;2024-02-16T04:48:02;1.60;;;1.50;;
5209;SDS011;2624;48.048;11.706;2024-02-16T04:53:05;0.97;;;0.97;;
5209;SDS011;2624;48.048;11.706;2024-02-16T04:58:08;1.57;;;1.20;;
5209;SDS011;2624;48.048;11.706;2024-02-16T05:03:09;1.70;;;1.00;;
5209;SDS011;2624;48.048;11.706;2024-02-16T05:08:11;4.33;;;1.77;;
5209;SDS011;2624;48.048;11.706;2024-02-16T05:13:14;1.47;;;1.37;;
5209;SDS011;2624;48.048;11.706;2024-02-16T05:18:17;1.33;;;0.80;;
5209;SDS011;2624;48.048;11.706;2024-02-16T05:23:22;1.30;;;1.20;;
5209;SDS011;2624;48.048;11.706;2024-02-16T05:28:25;1.10;;;1.00;;
5209;SDS011;2624;48.048;11.706;2024-02-16T05:33:27;1.10;;;1.10;;
5209;SDS011;2624;48.048;11.706;2024-02-16T05:38:30;2.10;;;1.50;;
5209;SDS011;2624;48.048;11.706;2024-02-16T05:43:36;1.13;;;1.13;;
5209;SDS011;2624;48.048;11.706;2024-02-16T05:48:39;5.40;;;1.87;;
5209;SDS011;2624;48.048;11.706;2024-02-16T05:53:40;1.33;;;1.23;;
5209;SDS011;2624;48.048;11.706;2024-02-16T05:58:43;0.70;;;0.70;;
5209;SDS011;2624;48.048;11.706;2024-02-16T06:03:45;0.77;;;0.77;;
5209;SDS011;2624;48.048;11.706;2024-02-16T06:08:47;1.13;;;1.13;;
5209;SDS011;2624;48.048;11.706;2024-02-16T06:13:50;2.00;;;0.90;;
5209;SDS011;2624;48.048;11.706;2024-02-16T06:18:52;3.23;;;1.53;;
5209;SDS011;2624;48.048;11.706;2024-02-16T06:23:53;2.30;;;1.00;;
5209;SDS011;2624;48.048;11.706;2024-02-16T06:28:57;2.33;;;2.03;;
5209;SDS011;2624;48.048;11.706;2024-02-16T06:33:59;9.30;;;1.40;;
5209;SDS011;2624;48.048;11.706;2024-02-16T06:39:01;1.37;;;1.27;;
5209;SDS011;2624;48.048;11.706;2024-02-16T06:44:04;1.20;;;1.20;;
5209;SDS011;2624;48.048;11.706;2024-02-16T06:49:06;1.23;;;1.23;;
5209;SDS011;2624;48.048;11.706;2024-02-16T06:54:08;1.57;;;1.47;;
5209;SDS011;2624;48.048;11.706;2024-02-16T06:59:11;2.17;;;1.03;;
5209;SDS011;2624;48.048;11.706;2024-02-16T07:04:13;4.00;;;0.83;;
5209;SDS011;2624;48.048;11.706;2024-02-16T07:09:14;1.27;;;1.17;;
5209;SDS011;2624;48.048;11.706;2024-02-16T07:14:18;1.97;;;1.30;;
5209;SDS011;2624;48.048;11.706;2024-02-16T07:19:19;2.70;;;1.00;;
5209;SDS011;2624;48.048;11.706;2024-02-16T07:24:21;1.70;;;1.20;;
5209;SDS011;2624;48.048;11.706;2024-02-16T07:29:24;4.07;;;1.50;;
5209;SDS011;2624;48.048;11.706;2024-02-16T07:34:27;1.20;;;1.03;;
5209;SDS011;2624;48.048;11.706;2024-02-16T07:39:29;3.90;;;1.30;;
5209;SDS011;2624;48.048;11.706;2024-02-16T07:44:32;1.90;;;1.40;;
5209;SDS011;2624;48.048;11.706;2024-02-16T07:49:37;1.30;;;1.30;;
5209;SDS011;2624;48.048;11.706;2024-02-16T07:54:39;1.73;;;1.40;;
5209;SDS011;2624;48.048;11.706;2024-02-16T07:59:43;5.30;;;1.93;;
5209;SDS011;2624;48.048;11.706;2024-02-16T08:04:46;3.00;;;1.40;;
5209;SDS011;2624;48.048;11.706;2024-02-16T08:09:48;5.33;;;0.90;;
5209;SDS011;2624;48.048;11.706;2024-02-16T08:14:51;0.70;;;0.70;;
5209;SDS011;2624;48.048;11.706;2024-02-16T08:19:53;5.03;;;1.30;;
5209;SDS011;2624;48.048;11.706;2024-02-16T08:24:55;2.80;;;1.30;;
5209;SDS011;2624;48.048;11.706;2024-02-16T08:29:58;1.77;;;1.17;;
5209;SDS011;2624;48.048;11.706;2024-02-16T08:35:02;1.40;;;1.30;;
5209;SDS011;2624;48.048;11.706;2024-02-16T08:40:04;7.43;;;1.20;;
5209;SDS011;2624;48.048;11.706;2024-02-16T08:45:08;1.33;;;0.83;;
5209;SDS011;2624;48.048;11.706;2024-02-16T08:50:12;0.80;;;0.70;;
5209;SDS011;2624;48.048;11.706;2024-02-16T08:55:14;0.80;;;0.80;;
5209;SDS011;2624;48.048;11.706;2024-02-16T09:00:17;0.63;;;0.63;;
5209;SDS011;2624;48.048;11.706;2024-02-16T09:05:20;1.03;;;0.90;;
5209;SDS011;2624;48.048;11.706;2024-02-16T09:10:22;2.10;;;1.00;;
5209;SDS011;2624;48.048;11.706;2024-02-16T09:15:25;8.20;;;1.00;;
5209;SDS011;2624;48.048;11.706;2024-02-16T09:20:27;10.83;;;1.17;;
5209;SDS011;2624;48.048;11.706;2024-02-16T09:25:28;2.10;;;0.80;;
5209;SDS011;2624;48.048;11.706;2024-02-16T09:30:32;0.50;;;0.50;;
5209;SDS011;2624;48.048;11.706;2024-02-16T09:35:33;0.60;;;0.60;;
5209;SDS011;2624;48.048;11.706;2024-02-16T09:40:35;0.73;;;0.50;;
5209;SDS011;2624;48.048;11.706;2024-02-16T09:45:38;2.83;;;0.90;;
5209;SDS011;2624;48.048;11.706;2024-02-16T09:50:40;0.77;;;0.77;;
5209;SDS011;2624;48.048;11.706;2024-02-16T09:55:42;1.67;;;0.57;;
5209;SDS011;2624;48.048;11.706;2024-02-16T10:00:49;0.73;;;0.70;;
5209;SDS011;2624;48.048;11.706;2024-02-16T10:05:52;1.40;;;0.70;;
5209;SDS011;2624;48.048;11.706;2024-02-16T10:11:00;1.17;;;1.00;;
5209;SDS011;2624;48.048;11.706;2024-02-16T10:16:07;0.50;;;0.50;;
5209;SDS011;2624;48.048;11.706;2024-02-16T10:21:10;2.50;;;0.50;;
5209;SDS011;2624;48.048;11.706;2024-02-16T10:26:12;1.70;;;0.80;;
5209;SDS011;2624;48.048;11.706;2024-02-16T10:31:15;1.70;;;0.70;;
5209;SDS011;2624;48.048;11.706;2024-02-16T10:36:17;1.00;;;0.50;;
5209;SDS011;2624;48.048;11.706;2024-02-16T10:41:19;0.50;;;0.50;;
5209;SDS011;2624;48.048;11.706;2024-02-16T10:46:24;0.67;;;0.67;;
5209;SDS011;2624;48.048;11.706;2024-02-16T10:51:28;0.50;;;0.50;;
5209;SDS011;2624;48.048;11.706;2024-02-16T10:56:35;0.60;;;0.60;;
5209;SDS011;2624;48.048;11.706;2024-02-16T11:01:39;0.80;;;0.80;;
5209;SDS011;2624;48.048;11.706;2024-02-16T11:06:47;0.50;;;0.50;;
5209;SDS011;2624;48.048;11.706;2024-02-16T11:11:51;1.00;;;1.00;;
5209;SDS011;2624;48.048;11.706;2024-02-16T11:16:55;0.70;;;0.70;;
5209;SDS011;2624;48.048;11.706;2024-02-16T11:21:57;0.63;;;0.63;;
5209;SDS011;2624;48.048;11.706;2024-02-16T11:27:02;2.17;;;0.90;;
5209;SDS011;2624;48.048;11.706;2024-02-16T11:32:07;0.63;;;0.63;;
5209;SDS011;2624;48.048;11.706;2024-02-16T11:37:09;0.60;;;0.60;;
5209;SDS011;2624;48.048;11.706;2024-02-16T11:42:18;0.60;;;0.60;;
5209;SDS011;2624;48.048;11.706;2024-02-16T11:47:22;1.23;;;0.60;;
5209;SDS011;2624;48.048;11.706;2024-02-16T11:52:25;1.50;;;0.73;;
5209;SDS011;2624;48.048;11.706;2024-02-16T11:57:27;0.70;;;0.70;;
5209;SDS011;2624;48.048;11.706;2024-02-16T12:02:30;0.80;;;0.80;;
5209;SDS011;2624;48.048;11.706;2024-02-16T12:07:32;1.00;;;0.90;;
5209;SDS011;2624;48.048;11.706;2024-02-16T12:12:34;0.60;;;0.60;;
5209;SDS011;2624;48.048;11.706;2024-02-16T12:17:37;0.60;;;0.60;;
5209;SDS011;2624;48.048;11.706;2024-02-16T12:22:40;0.80;;;0.80;;
5209;SDS011;2624;48.048;11.706;2024-02-16T12:27:41;1.30;;;1.10;;
5209;SDS011;2624;48.048;11.706;2024-02-16T12:32:45;0.80;;;0.77;;
5209;SDS011;2624;48.048;11.706;2024-02-16T12:37:46;2.30;;;0.70;;
5209;SDS011;2624;48.048;11.706;2024-02-16T12:42:48;0.90;;;0.90;;
5209;SDS011;2624;48.048;11.706;2024-02-16T12:47:51;1.90;;;0.67;;
5209;SDS011;2624;48.048;11.706;2024-02-16T12:52:53;0.60;;;0.60;;
5209;SDS011;2624;48.048;11.706;2024-02-16T12:57:55;0.50;;;0.50;;
5209;SDS011;2624;48.048;11.706;2024-02-16T13:02:58;3.23;;;1.00;;
5209;SDS011;2624;48.048;11.706;2024-02-16T13:08:01;0.90;;;0.90;;
5209;SDS011;2624;48.048;11.706;2024-02-16T13:13:03;0.80;;;0.80;;
5209;SDS011;2624;48.048;11.706;2024-02-16T13:18:06;2.00;;;0.90;;
5209;SDS011;2624;48.048;11.706;2024-02-16T13:23:08;1.27;;;0.77;;
5209;SDS011;2624;48.048;11.706;2024-02-16T13:28:09;0.90;;;0.80;;
5209;SDS011;2624;48.048;11.706;2024-02-16T13:33:13;0.87;;;0.87;;
5209;SDS011;2624;48.048;11.706;2024-02-16T13:38:14;1.07;;;0.70;;
5209;SDS011;2624;48.048;11.706;2024-02-16T13:43:16;2.00;;;0.67;;
5209;SDS011;2624;48.048;11.706;2024-02-16T13:48:19;0.70;;;0.70;;
5209;SDS011;2624;48.048;11.706;2024-02-16T13:53:21;0.60;;;0.60;;
5209;SDS011;2624;48.048;11.706;2024-02-16T13:58:23;0.60;;;0.60;;
5209;SDS011;2624;48.048;11.706;2024-02-16T14:03:26;0.60;;;0.60;;
5209;SDS011;2624;48.048;11.706;2024-02-16T14:08:28;0.60;;;0.60;;
5209;SDS011;2624;48.048;11.706;2024-02-16T14:13:31;0.80;;;0.70;;
5209;SDS011;2624;48.048;11.706;2024-02-16T14:18:34;2.30;;;0.73;;
5209;SDS011;2624;48.048;11.706;2024-02-16T14:23:35;1.17;;;1.00;;
5209;SDS011;2624;48.048;11.706;2024-02-16T14:28:37;1.33;;;0.93;;
5209;SDS011;2624;48.048;11.706;2024-02-16T14:33:40;2.03;;;1.00;;
5209;SDS011;2624;48.048;11.706;2024-02-16T14:38:43;2.03;;;1.10;;
5209;SDS011;2624;48.048;11.706;2024-02-16T14:43:45;1.33;;;0.90;;
5209;SDS011;2624;48.048;11.706;2024-02-16T14:48:48;0.70;;;0.70;;
5209;SDS011;2624;48.048;11.706;2024-02-16T14:53:52;0.90;;;0.90;;
5209;SDS011;2624;48.048;11.706;2024-02-16T14:58:53;1.13;;;1.03;;
5209;SDS011;2624;48.048;11.706;2024-02-16T15:03:57;2.10;;;1.07;;
5209;SDS011;2624;48.048;11.706;2024-02-16T15:08:59;0.70;;;0.70;;
5209;SDS011;2624;48.048;11.706;2024-02-16T15:14:03;1.93;;;0.73;;
5209;SDS011;2624;48.048;11.706;2024-02-16T15:19:06;1.70;;;1.27;;
5209;SDS011;2624;48.048;11.706;2024-02-16T15:24:08;0.70;;;0.70;;
5209;SDS011;2624;48.048;11.706;2024-02-16T15:29:09;0.80;;;0.80;;
5209;SDS011;2624;48.048;11.706;2024-02-16T15:34:13;2.60;;;1.00;;
5209;SDS011;2624;48.048;11.706;2024-02-16T15:39:15;7.47;;;1.33;;
5209;SDS011;2624;48.048;11.706;2024-02-16T15:44:17;2.73;;;1.67;;
5209;SDS011;2624;48.048;11.706;2024-02-16T15:49:20;2.30;;;1.20;;
5209;SDS011;2624;48.048;11.706;2024-02-16T15:54:23;0.80;;;0.80;;
5209;SDS011;2624;48.048;11.706;2024-02-16T15:59:26;0.70;;;0.70;;
5209;SDS011;2624;48.048;11.706;2024-02-16T16:04:29;2.13;;;1.50;;
5209;SDS011;2624;48.048;11.706;2024-02-16T16:09:31;1.03;;;0.93;;
5209;SDS011;2624;48.048;11.706;2024-02-16T16:14:32;1.07;;;0.80;;
5209;SDS011;2624;48.048;11.706;2024-02-16T16:19:37;1.83;;;1.50;;
5209;SDS011;2624;48.048;11.706;2024-02-16T16:24:39;5.73;;;1.70;;
5209;SDS011;2624;48.048;11.706;2024-02-16T16:29:42;5.07;;;1.23;;
5209;SDS011;2624;48.048;11.706;2024-02-16T16:34:45;2.20;;;1.40;;
5209;SDS011;2624;48.048;11.706;2024-02-16T16:39:47;3.50;;;1.10;;
5209;SDS011;2624;48.048;11.706;2024-02-16T16:44:49;6.37;;;1.37;;
5209;SDS011;2624;48.048;11.706;2024-02-16T16:49:52;3.50;;;1.00;;
5209;SDS011;2624;48.048;11.706;2024-02-16T16:54:54;2.63;;;0.93;;
5209;SDS011;2624;48.048;11.706;2024-02-16T16:59:56;1.03;;;0.70;;
5209;SDS011;2624;48.048;11.706;2024-02-16T17:04:59;1.03;;;1.00;;
5209;SDS011;2624;48.048;11.706;2024-02-16T17:10:01;3.20;;;1.93;;
5209;SDS011;2624;48.048;11.706;2024-02-16T17:15:05;5.30;;;2.87;;
5209;SDS011;2624;48.048;11.706;2024-02-16T17:20:09;6.10;;;2.77;;
5209;SDS011;2624;48.048;11.706;2024-02-16T17:25:11;2.03;;;1.40;;
5209;SDS011;2624;48.048;11.706;2024-02-16T17:30:13;2.13;;;1.47;;
5209;SDS011;2624;48.048;11.706;2024-02-16T17:35:20;1.37;;;1.27;;
5209;SDS011;2624;48.048;11.706;2024-02-16T17:40:22;3.63;;;1.90;;
5209;SDS011;2624;48.048;11.706;2024-02-16T17:45:24;3.17;;;2.00;;
5209;SDS011;2624;48.048;11.706;2024-02-16T17:50:27;3.23;;;1.30;;
5209;SDS011;2624;48.048;11.706;2024-02-16T17:55:29;3.70;;;1.50;;
5209;SDS011;2624;48.048;11.706;2024-02-16T18:00:30;1.97;;;1.53;;
5209;SDS011;2624;48.048;11.706;2024-02-16T18:05:33;5.60;;;2.07;;
5209;SDS011;2624;48.048;11.706;2024-02-16T18:10:35;3.00;;;1.20;;
5209;SDS011;2624;48.048;11.706;2024-02-16T18:15:37;5.73;;;1.97;;
5209;SDS011;2624;48.048;11.706;2024-02-16T18:20:40;2.97;;;2.10;;
5209;SDS011;2624;48.048;11.706;2024-02-16T18:25:42;4.00;;;2.40;;
5209;SDS011;2624;48.048;11.706;2024-02-16T18:30:44;3.70;;;1.70;;
5209;SDS011;2624;48.048;11.706;2024-02-16T18:35:47;5.53;;;1.90;;
5209;SDS011;2624;48.048;11.706;2024-02-16T18:40:48;2.00;;;1.90;;
5209;SDS011;2624;48.048;11.706;2024-02-16T18:45:50;1.87;;;1.77;;
5209;SDS011;2624;48.048;11.706;2024-02-16T18:50:53;4.30;;;1.50;;
5209;SDS011;2624;48.048;11.706;2024-02-16T18:55:55;4.87;;;2.37;;
5209;SDS011;2624;48.048;11.706;2024-02-16T19:00:57;2.80;;;2.60;;
5209;SDS011;2624;48.048;11.706;2024-02-16T19:06:00;3.83;;;2.17;;
5209;SDS011;2624;48.048;11.706;2024-02-16T19:11:02;4.87;;;2.77;;
5209;SDS011;2624;48.048;11.706;2024-02-16T19:16:04;2.00;;;1.77;;
5209;SDS011;2624;48.048;11.706;2024-02-16T19:21:10;1.70;;;1.60;;
5209;SDS011;2624;48.048;11.706;2024-02-16T19:26:12;1.80;;;1.63;;
5209;SDS011;2624;48.048;11.706;2024-02-16T19:31:14;3.67;;;2.47;;
5209;SDS011;2624;48.048;11.706;2024-02-16T19:36:17;7.30;;;2.40;;
5209;SDS011;2624;48.048;11.706;2024-02-16T19:41:19;3.83;;;2.00;;
5209;SDS011;2624;48.048;11.706;2024-02-16T19:46:21;3.23;;;1.97;;
5209;SDS011;2624;48.048;11.706;2024-02-16T19:51:24;2.10;;;1.87;;
5209;SDS011;2624;48.048;11.706;2024-02-16T19:56:26;7.73;;;1.70;;
5209;SDS011;2624;48.048;11.706;2024-02-16T20:01:27;2.27;;;2.07;;
5209;SDS011;2624;48.048;11.706;2024-02-16T20:06:30;5.70;;;1.87;;
5209;SDS011;2624;48.048;11.706;2024-02-16T20:11:32;5.20;;;2.10;;
5209;SDS011;2624;48.048;11.706;2024-02-16T20:16:35;2.53;;;1.33;;
5209;SDS011;2624;48.048;11.706;2024-02-16T20:21:39;3.23;;;1.87;;
5209;SDS011;2624;48.048;11.706;2024-02-16T20:26:41;5.77;;;2.20;;
5209;SDS011;2624;48.048;11.706;2024-02-16T20:31:42;9.50;;;1.67;;
5209;SDS011;2624;48.048;11.706;2024-02-16T20:36:46;2.00;;;1.80;;
5209;SDS011;2624;48.048;11.706;2024-02-16T20:41:49;3.70;;;1.77;;
5209;SDS011;2624;48.048;11.706;2024-02-16T20:46:51;1.50;;;1.40;;
5209;SDS011;2624;48.048;11.706;2024-02-16T20:51:54;2.37;;;1.80;;
5209;SDS011;2624;48.048;11.706;2024-02-16T20:56:56;4.60;;;1.80;;
5209;SDS011;2624;48.048;11.706;2024-02-16T21:02:00;2.50;;;1.93;;
5209;SDS011;2624;48.048;11.706;2024-02-16T21:07:03;10.50;;;1.97;;
5209;SDS011;2624;48.048;11.706;2024-02-16T21:12:05;1.87;;;1.53;;
5209;SDS011;2624;48.048;11.706;2024-02-16T21:17:08;3.60;;;2.07;;
5209;SDS011;2624;48.048;11.706;2024-02-16T21:22:11;4.33;;;1.80;;
5209;SDS011;2624;48.048;11.706;2024-02-16T21:27:13;5.93;;;2.13;;
5209;SDS011;2624;48.048;11.706;2024-02-16T21:32:14;2.83;;;1.80;;
5209;SDS011;2624;48.048;11.706;2024-02-16T21:37:17;2.60;;;2.00;;
5209;SDS011;2624;48.048;11.706;2024-02-16T21:42:19;5.43;;;1.40;;
5209;SDS011;2624;48.048;11.706;2024-02-16T21:47:21;2.80;;;1.70;;
5209;SDS011;2624;48.048;11.706;2024-02-16T21:52:24;3.33;;;1.73;;
5209;SDS011;2624;48.048;11.706;2024-02-16T21:57:26;2.33;;;2.13;;
5209;SDS011;2624;48.048;11.706;2024-02-16T22:02:28;4.90;;;1.63;;
5209;SDS011;2624;48.048;11.706;2024-02-16T22:07:31;1.73;;;1.63;;
5209;SDS011;2624;48.048;11.706;2024-02-16T22:12:33;5.73;;;1.70;;
5209;SDS011;2624;48.048;11.706;2024-02-16T22:17:34;6.63;;;1.50;;
5209;SDS011;2624;48.048;11.706;2024-02-16T22:22:37;2.40;;;1.47;;
5209;SDS011;2624;48.048;11.706;2024-02-16T22:27:39;6.53;;;1.73;;
5209;SDS011;2624;48.048;11.706;2024-02-16T22:32:42;3.23;;;2.00;;
5209;SDS011;2624;48.048;11.706;2024-02-16T22:37:45;2.13;;;1.40;;
5209;SDS011;2624;48.048;11.706;2024-02-16T22:42:46;2.13;;;1.93;;
5209;SDS011;2624;48.048;11.706;2024-02-16T22:47:48;1.83;;;1.60;;
5209;SDS011;2624;48.048;11.706;2024-02-16T22:52:51;1.93;;;1.63;;
5209;SDS011;2624;48.048;11.706;2024-02-16T22:57:53;2.23;;;1.57;;
5209;SDS011;2624;48.048;11.706;2024-02-16T23:02:55;2.60;;;1.77;;
5209;SDS011;2624;48.048;11.706;2024-02-16T23:08:00;2.50;;;1.53;;
5209;SDS011;2624;48.048;11.706;2024-02-16T23:13:03;7.23;;;2.40;;
5209;SDS011;2624;48.048;11.706;2024-02-16T23:18:05;3.87;;;2.47;;
5209;SDS011;2624;48.048;11.706;2024-02-16T23:23:09;1.60;;;1.50;;
5209;SDS011;2624;48.048;11.706;2024-02-16T23:28:11;2.17;;;2.00;;
5209;SDS011;2624;48.048;11.706;2024-02-16T23:33:14;2.67;;;1.60;;
5209;SDS011;2624;48.048;11.706;2024-02-16T23:38:17;2.33;;;2.13;;
5209;SDS011;2624;48.048;11.706;2024-02-16T23:43:19;2.97;;;1.97;;
5209;SDS011;2624;48.048;11.706;2024-02-16T23:48:20;6.47;;;1.93;;
5209;SDS011;2624;48.048;11.706;2024-02-16T23:53:23;8.00;;;1.67;;
5209;SDS011;2624;48.048;11.706;2024-02-16T23:58:25;2.20;;;1.60;;
